Data for 09/24/2013

Time Sea-Level Adjusted Pressure Absolute Pressure Temperature Relative Humidity Dew Point   
(mb) (inHg) (mb) (inHg) (C) (F) (%) (C) (F)
00:05 1017 30.03 846 24.98 7.3 45.1 61 0.3 32.5
00:10 1017 30.03 846 24.98 7.3 45.2 62 0.7 33.2
00:15 1017 30.03 846 24.98 7.1 44.7 64 0.7 33.3
00:20 1017 30.03 846 24.98 6.7 44 65 0.5 33
00:25 1017 30.03 846 24.98 6.6 43.8 65 0.5 32.9
00:30 1017 30.03 847 25.01 6.6 43.8 65 0.6 33.1
00:35 1017 30.03 847 25.01 6.5 43.7 64 0.3 32.5
00:40 1017 30.03 847 25.01 6.6 43.9 64 0.2 32.4
00:45 1017 30.03 847 25.01 6.4 43.6 67 0.7 33.3
00:50 1017 30.03 847 25.01 6 42.8 65 0 32
00:55 1017 30.03 847 25.01 6.3 43.3 65 0.2 32.4
01:00 1017 30.03 847 25.01 6.3 43.3 66 0.4 32.7
01:05 1017 30.03 847 25.01 6.2 43.2 66 0.5 32.8
01:10 1017 30.03 847 25.01 6.1 42.9 68 0.6 33.1
01:15 1017 30.03 847 25.01 6.1 42.9 67 0.4 32.7
01:20 1018 30.06 847 25.01 6.2 43.2 66 0.4 32.7
01:25 1018 30.06 847 25.01 6.2 43.2 65 0.2 32.4
01:30 1017 30.03 847 25.01 6.5 43.7 64 0.1 32.2
01:35 1017 30.03 847 25.01 6.9 44.3 61 -0.2 31.6
01:40 1017 30.03 847 25.01 7.2 45 60 -0 31.9
01:45 1017 30.03 847 25.01 7.3 45.2 60 0.1 32.1
01:50 1017 30.03 847 25.01 7.1 44.7 62 0.2 32.4
01:55 1017 30.03 847 25.01 6.9 44.5 61 -0.1 31.8
02:00 1017 30.03 847 25.01 7.1 44.9 60 0 32
02:05 1017 30.03 846 24.98 7.1 44.7 62 0.2 32.4
02:10 1017 30.03 846 24.98 6.9 44.4 63 0.2 32.4
02:15 1017 30.03 846 24.98 6.8 44.3 62 0.2 32.3
02:20 1017 30.03 846 24.98 6.6 43.9 65 0.5 32.9
02:25 1017 30.03 846 24.98 6.4 43.5 65 0.3 32.6
02:30 1017 30.03 846 24.98 6.3 43.3 64 0 32
02:35 1017 30.03 846 24.98 6.4 43.4 63 -0.1 31.8
02:40 1017 30.03 846 24.98 6.4 43.6 63 -0.1 31.7
02:45 1017 30.03 846 24.98 6.6 43.9 62 -0.1 31.8
02:50 1017 30.03 846 24.98 6.7 44 62 -0.1 31.8
02:55 1017 30.03 846 24.98 6.7 44.1 62 0 32
03:00 1017 30.03 846 24.98 6.8 44.2 61 -0.1 31.8
03:05 1017 30.03 846 24.98 6.9 44.4 61 -0.1 31.8
03:10 1017 30.03 846 24.98 6.8 44.3 62 0 32
03:15 1017 30.03 846 24.98 6.9 44.4 60 -0.3 31.4
03:20 1017 30.03 846 24.98 7.1 44.9 59 -0.2 31.6
03:25 1017 30.03 846 24.98 7.2 45 59 -0.2 31.6
03:30 1017 30.03 846 24.98 7.2 44.9 59 -0.2 31.6
03:35 1017 30.03 846 24.98 7.1 44.8 59 -0.4 31.4
03:40 1017 30.03 846 24.98 7 44.6 63 0.3 32.6
03:45 1017 30.03 846 24.98 6.4 43.5 64 0 32.1
03:50 1017 30.03 846 24.98 6.3 43.3 63 -0.2 31.7
03:55 1017 30.03 846 24.98 6.5 43.8 63 -0 31.9
04:00 1017 30.03 846 24.98 6.5 43.7 62 -0.2 31.7
04:05 1017 30.03 846 24.98 6.7 44 61 -0.3 31.5
04:10 1017 30.03 846 24.98 6.8 44.2 60 -0.4 31.3
04:15 1017 30.03 846 24.98 7 44.6 60 -0.3 31.4
04:20 1017 30.03 846 24.98 7 44.6 59 -0.4 31.2
04:25 1017 30.03 846 24.98 7.1 44.7 59 -0.4 31.2
04:30 1017 30.03 846 24.98 7.1 44.8 58 -0.5 31.1
04:35 1016 30 846 24.98 7.1 44.9 58 -0.5 31.2
04:40 1016 30 846 24.98 7.1 44.9 58 -0.4 31.2
04:45 1016 30 846 24.98 7 44.7 59 -0.4 31.3
04:50 1016 30 846 24.98 6.9 44.5 60 -0.4 31.3
04:55 1016 30 846 24.98 7 44.6 58 -0.6 31
05:00 1016 30 845 24.95 7.3 45.1 58 -0.5 31.1
05:05 1016 30 845 24.95 7.4 45.3 57 -0.6 30.8
05:10 1016 30 845 24.95 7.5 45.5 57 -0.4 31.2
05:15 1016 30 845 24.95 7.6 45.6 57 -0.5 31.1
05:20 1016 30 845 24.95 7.5 45.6 57 -0.4 31.3
05:25 1016 30 845 24.95 7.4 45.4 57 -0.6 31
05:30 1016 30 845 24.95 7.6 45.7 56 -0.7 30.8
05:35 1016 30 845 24.95 7.7 45.9 56 -0.5 31
05:40 1016 30 845 24.95 7.8 46 56 -0.4 31.3
05:45 1016 30 845 24.95 7.8 46 56 -0.4 31.3
05:50 1016 30 845 24.95 7.9 46.2 56 -0.4 31.2
05:55 1016 30 845 24.95 8 46.3 55 -0.6 31
06:00 1016 30 845 24.95 8.1 46.6 55 -0.5 31.2
06:05 1016 30 845 24.95 8.3 46.9 55 -0.2 31.6
06:10 1016 30 845 24.95 8.2 46.7 57 0.1 32.2
06:15 1016 30 845 24.95 8 46.4 57 0.1 32.3
06:20 1016 30 845 24.95 8 46.5 57 0 32.1
06:25 1016 30 845 24.95 8.2 46.7 55 -0.3 31.4
06:30 1016 30 845 24.95 8.4 47.1 54 -0.4 31.4
06:35 1015 29.97 845 24.95 8.6 47.4 53 -0.6 31
06:40 1015 29.97 845 24.95 8.8 47.8 52 -0.4 31.2
06:45 1015 29.97 844 24.92 8.9 48 53 -0.2 31.6
06:50 1015 29.97 844 24.92 8.9 48 53 -0.2 31.6
06:55 1015 29.97 844 24.92 8.9 48.1 52 -0.4 31.3
07:00 1015 29.97 845 24.95 9.1 48.3 53 0 32.1
07:05 1015 29.97 844 24.92 9.1 48.3 53 0.1 32.3
07:10 1015 29.97 844 24.92 9 48.3 53 0.1 32.1
07:15 1015 29.97 844 24.92 9.1 48.4 53 0.2 32.3
07:20 1015 29.97 844 24.92 9.2 48.5 53 0.1 32.2
07:25 1015 29.97 844 24.92 9.2 48.6 53 0.2 32.4
07:30 1015 29.97 844 24.92 9.3 48.7 55 0.7 33.2
07:35 1015 29.97 844 24.92 9.4 49 52 0.2 32.4
07:40 1015 29.97 844 24.92 10.1 50.1 51 0.4 32.7
07:45 1015 29.97 844 24.92 10.6 51.1 48 0.1 32.1
07:50 1015 29.97 844 24.92 11.3 52.3 45 -0.1 31.8
07:55 1015 29.97 844 24.92 11.6 52.8 45 0.2 32.3
08:00 1015 29.97 844 24.92 11.7 53.1 46 0.5 32.9
08:05 1015 29.97 844 24.92 11.4 52.6 47 0.7 33.2
08:10 1015 29.97 844 24.92 11.4 52.4 47 0.5 32.8
08:15 1015 29.97 844 24.92 11.4 52.6 45 0 32.1
08:20 1015 29.97 844 24.92 11.6 52.8 47 0.7 33.3
08:25 1015 29.97 844 24.92 11.6 52.9 47 0.8 33.4
08:30 1015 29.97 844 24.92 11.6 52.8 47 0.8 33.5
08:35 1014 29.94 844 24.92 11.8 53.2 45 0.4 32.8
08:40 1014 29.94 844 24.92 11.9 53.4 44 0.2 32.4
08:45 1014 29.94 844 24.92 12.1 53.7 45 0.6 33.1
08:50 1014 29.94 843 24.89 12.1 53.7 45 0.6 33.1
08:55 1014 29.94 843 24.89 12.3 54.2 45 0.8 33.4
09:00 1014 29.94 843 24.89 12.3 54.2 45 0.8 33.4
09:05 1014 29.94 843 24.89 12.5 54.6 46 1.2 34.1
09:10 1014 29.94 844 24.92 12.5 54.5 44 0.6 33
09:15 1014 29.94 844 24.92 12.6 54.8 43 0.6 33.1
09:20 1014 29.94 844 24.92 12.9 55.2 44 1 33.8
09:25 1014 29.94 844 24.92 13.2 55.7 42 0.7 33.3
09:30 1014 29.94 844 24.92 13.4 56.1 43 1.1 34
09:35 1014 29.94 843 24.89 13.8 56.8 42 1.1 33.9
09:40 1014 29.94 843 24.89 14 57.2 43 1.7 35.1
09:45 1014 29.94 843 24.89 14.2 57.5 42 1.4 34.6
09:50 1014 29.94 843 24.89 14.3 57.7 42 1.6 34.8
09:55 1014 29.94 843 24.89 14.3 57.8 43 1.9 35.4
10:00 1014 29.94 843 24.89 14.4 57.9 42 1.7 35.1
10:05 1014 29.94 843 24.89 14.6 58.3 42 1.8 35.3
10:10 1014 29.94 843 24.89 15.2 59.4 40 1.9 35.5
10:15 1013 29.91 843 24.89 15.6 60.1 40 2.1 35.7
10:20 1013 29.91 843 24.89 15.5 59.8 42 2.6 36.6
10:25 1013 29.91 842 24.86 15.4 59.7 42 2.5 36.5
10:30 1013 29.91 842 24.86 15.4 59.7 39 1.5 34.8
10:35 1013 29.91 842 24.86 15.5 59.8 39 1.7 35
10:40 1013 29.91 842 24.86 15.3 59.6 39 1.6 34.9
10:45 1013 29.91 842 24.86 15.1 59.1 39 1.3 34.3
10:50 1013 29.91 842 24.86 15.2 59.3 39 1.3 34.4
10:55 1013 29.91 842 24.86 15.3 59.5 38 1.2 34.1
11:00 1013 29.91 842 24.86 15.6 60.1 38 1.3 34.4
11:05 1013 29.91 842 24.86 15.6 60.2 37 1 33.9
11:10 1013 29.91 842 24.86 15.8 60.5 36 1 33.8
11:15 1013 29.91 842 24.86 15.8 60.5 37 1.3 34.4
11:20 1012 29.88 842 24.86 16 60.8 37 1.5 34.8
11:25 1012 29.88 842 24.86 16.1 61 39 2.2 36
11:30 1012 29.88 842 24.86 15.9 60.6 41 2.8 37
11:35 1012 29.88 841 24.83 16 60.8 42 3.3 38
11:40 1012 29.88 841 24.83 16.2 61.1 43 3.7 38.7
11:45 1012 29.88 841 24.83 16.3 61.3 36 1.3 34.3
11:50 1012 29.88 841 24.83 16.6 61.9 39 2.7 36.9
11:55 1012 29.88 841 24.83 16.2 61.1 37 1.5 34.6
12:00 1012 29.88 841 24.83 16.3 61.3 41 3.2 37.7
12:05 1012 29.88 841 24.83 16.3 61.3 44 4.2 39.5
12:10 1011 29.85 841 24.83 16.3 61.3 42 3.6 38.6
12:15 1011 29.85 841 24.83 16.5 61.6 41 3.2 37.7
12:20 1011 29.85 841 24.83 16.7 62 41 3.4 38.2
12:25 1011 29.85 840 24.81 16.9 62.5 39 3.1 37.6
12:30 1011 29.85 840 24.81 16.2 61.2 48 5.4 41.8
12:35 1011 29.85 840 24.81 15 58.9 47 3.7 38.7
12:40 1011 29.85 840 24.81 15.6 60 44 3.3 37.9
12:45 1011 29.85 840 24.81 15.8 60.5 48 4.9 40.8
12:50 1011 29.85 840 24.81 15.9 60.6 44 3.8 38.8
12:55 1011 29.85 840 24.81 15.6 60.1 49 5.1 41.2
13:00 1011 29.85 840 24.81 15.5 59.9 48 4.6 40.3
13:05 1011 29.85 840 24.81 15.4 59.8 48 4.7 40.4
13:10 1010 29.83 840 24.81 15.5 60 50 5.1 41.2
13:15 1010 29.83 840 24.81 15.6 60 50 5.3 41.5
13:20 1010 29.83 840 24.81 14.9 58.8 52 5.2 41.3
13:25 1010 29.83 840 24.81 15 59 51 5.2 41.3
13:30 1010 29.83 840 24.81 14.9 58.8 50 4.7 40.4
13:35 1010 29.83 840 24.81 15 58.9 50 4.8 40.6
13:40 1010 29.83 840 24.81 14.8 58.6 50 4.6 40.4
13:45 1010 29.83 840 24.81 14.5 58.1 53 5 41
13:50 1011 29.85 840 24.81 14.6 58.3 47 3.5 38.2
13:55 1010 29.83 840 24.81 14.5 58.1 47 3.4 38.2
14:00 1011 29.85 840 24.81 14.6 58.3 46 3.3 38
14:05 1011 29.85 840 24.81 14.6 58.3 45 2.9 37.2
14:10 1010 29.83 840 24.81 14.9 58.8 41 1.7 35
14:15 1010 29.83 840 24.81 15.3 59.6 41 2.3 36.2
14:20 1011 29.85 840 24.81 15.3 59.5 42 2.5 36.4
14:25 1011 29.85 840 24.81 15.3 59.5 42 2.6 36.6
14:30 1011 29.85 840 24.81 14.9 58.9 49 4.5 40
14:35 1011 29.85 840 24.81 14 57.1 49 3.6 38.4
14:40 1011 29.85 840 24.81 13.3 56 53 4.1 39.4
14:45 1011 29.85 840 24.81 13 55.4 52 3.6 38.4
14:50 1011 29.85 840 24.81 12.8 55.1 53 3.5 38.3
14:55 1011 29.85 840 24.81 12.9 55.3 53 3.7 38.7
15:00 1011 29.85 840 24.81 12.9 55.2 55 4 39.2
15:05 1011 29.85 840 24.81 12.7 54.9 55 3.9 39
15:10 1011 29.85 840 24.81 12.7 54.8 53 3.3 38
15:15 1011 29.85 840 24.81 13 55.3 52 3.5 38.3
15:20 1011 29.85 840 24.81 13 55.5 56 4.6 40.3
15:25 1011 29.85 840 24.81 13.2 55.7 49 2.7 36.9
15:30 1011 29.85 840 24.81 13.7 56.7 47 2.7 36.9
15:35 1010 29.83 840 24.81 13.8 56.8 48 3.2 37.7
15:40 1010 29.83 840 24.81 13.7 56.7 49 3.4 38.1
15:45 1010 29.83 840 24.81 13.7 56.6 50 3.4 38.1
15:50 1010 29.83 839 24.78 13.7 56.7 51 3.7 38.7
15:55 1010 29.83 839 24.78 13.7 56.7 50 3.4 38.2
16:00 1010 29.83 839 24.78 13.7 56.7 48 2.9 37.3
16:05 1010 29.83 839 24.78 13.9 56.9 48 3.2 37.7
16:10 1010 29.83 839 24.78 13.9 57.1 47 2.8 37.1
16:15 1010 29.83 839 24.78 14 57.2 48 3.2 37.8
16:20 1010 29.83 839 24.78 14 57.2 49 3.4 38.2
16:25 1010 29.83 839 24.78 14.1 57.4 47 3.2 37.7
16:30 1010 29.83 839 24.78 14.4 57.8 45 2.8 37
16:35 1009 29.8 839 24.78 14.5 58.2 44 2.6 36.7
16:40 1009 29.8 839 24.78 14.8 58.6 43 2.3 36.1
16:45 1009 29.8 838 24.75 15 58.9 41 2 35.6
16:50 1009 29.8 838 24.75 15 58.9 42 2.3 36.1
16:55 1009 29.8 838 24.75 14.9 58.9 41 1.8 35.2
17:00 1009 29.8 838 24.75 15 59 40 1.8 35.2
17:05 1009 29.8 838 24.75 15.1 59.2 39 1.2 34.2
17:10 1009 29.8 838 24.75 15.3 59.5 38 1.2 34.2
17:15 1009 29.8 838 24.75 15.3 59.5 38 1.3 34.3
17:20 1009 29.8 838 24.75 15.1 59.1 40 1.8 35.2
17:25 1009 29.8 838 24.75 14.9 58.9 40 1.6 34.9
17:30 1009 29.8 838 24.75 14.8 58.7 41 1.7 35
17:35 1009 29.8 838 24.75 14.7 58.5 41 1.6 35
17:40 1009 29.8 838 24.75 14.6 58.2 41 1.6 34.9
17:45 1009 29.8 838 24.75 14.4 58 42 1.8 35.2
17:50 1009 29.8 838 24.75 14.3 57.8 42 1.6 34.9
17:55 1009 29.8 838 24.75 14.3 57.7 42 1.8 35.2
18:00 1009 29.8 838 24.75 14.4 57.8 40 1.1 34
18:05 1009 29.8 838 24.75 14.5 58.1 40 1 33.9
18:10 1009 29.8 838 24.75 14.6 58.2 40 1.2 34.1
18:15 1009 29.8 838 24.75 14.3 57.7 42 1.7 35.1
18:20 1009 29.8 838 24.75 13.9 57.1 45 2.3 36.2
18:25 1009 29.8 838 24.75 13.5 56.3 48 2.9 37.2
18:30 1009 29.8 839 24.78 13.1 55.5 58 5 41
18:35 1009 29.8 839 24.78 12.6 54.6 55 3.8 38.9
18:40 1010 29.83 839 24.78 12 53.5 74 7.5 45.4
18:45 1010 29.83 839 24.78 10.2 50.3 81 7 44.6
18:50 1010 29.83 839 24.78 9.5 49.1 83 6.7 44
18:55 1010 29.83 839 24.78 9.1 48.5 83 6.4 43.6
19:00 1010 29.83 839 24.78 8.9 48.1 84 6.4 43.5
19:05 1011 29.85 840 24.81 8.8 47.8 85 6.4 43.5
19:10 1012 29.88 841 24.83 7.6 45.7 87 5.6 42
19:15 1013 29.91 842 24.86 6 42.8 90 4.4 40
19:20 1013 29.91 842 24.86 5.7 42.2 91 4.4 39.9
19:25 1013 29.91 842 24.86 5.6 42.2 91 4.3 39.8
19:30 1014 29.94 843 24.89 5.6 42 90 4.1 39.3
19:35 1014 29.94 843 24.89 5.4 41.7 91 4.1 39.4
19:40 1014 29.94 843 24.89 5.4 41.7 91 4 39.3
19:45 1014 29.94 843 24.89 5.3 41.5 91 4 39.2
19:50 1014 29.94 843 24.89 5.3 41.5 90 3.8 38.9
19:55 1014 29.94 843 24.89 5.4 41.6 90 3.9 38.9
20:00 1013 29.91 842 24.86 5.3 41.5 90 3.9 39
20:05 1013 29.91 842 24.86 5.1 41.2 91 3.7 38.7
20:10 1013 29.91 842 24.86 5.1 41.1 91 3.7 38.7
20:15 1012 29.88 842 24.86 5.1 41.1 90 3.6 38.5
20:20 1012 29.88 841 24.83 5.1 41.2 89 3.4 38.2
20:25 1012 29.88 841 24.83 5.1 41.3 91 3.8 38.8
20:30 1011 29.85 840 24.81 5 41.1 92 3.8 38.9
20:35 1012 29.88 841 24.83 5 41 89 3.4 38.1
20:40 1012 29.88 841 24.83 5.2 41.4 88 3.4 38.1
20:45 1012 29.88 841 24.83 5.4 41.6 88 3.5 38.2
20:50 1012 29.88 841 24.83 5.5 41.9 86 3.3 37.9
20:55 1011 29.85 841 24.83 5.6 42.1 86 3.4 38.2
21:00 1012 29.88 841 24.83 5.6 42.1 89 3.9 39.1
21:05 1012 29.88 841 24.83 5.8 42.4 80 2.6 36.7
21:10 1012 29.88 841 24.83 6.3 43.4 84 3.8 38.8
21:15 1012 29.88 841 24.83 6.2 43.2 76 2.4 36.3
21:20 1012 29.88 841 24.83 6.9 44.4 79 3.5 38.3
21:25 1012 29.88 841 24.83 7 44.5 81 3.9 39.1
21:30 1012 29.88 841 24.83 6.3 43.4 85 4 39.1
21:35 1012 29.88 841 24.83 5.9 42.6 83 3.2 37.8
21:40 1012 29.88 841 24.83 5.9 42.6 84 3.4 38.2
21:45 1012 29.88 841 24.83 5.9 42.6 85 3.5 38.3
21:50 1012 29.88 841 24.83 5.8 42.4 84 3.3 38
21:55 1012 29.88 841 24.83 5.6 42.1 86 3.5 38.3
22:00 1012 29.88 841 24.83 5.3 41.6 87 3.4 38.1
22:05 1012 29.88 841 24.83 5.1 41.2 88 3.2 37.8
22:10 1012 29.88 841 24.83 5 40.9 89 3.3 37.9
22:15 1012 29.88 841 24.83 5 40.9 88 3.1 37.6
22:20 1012 29.88 841 24.83 5 41 87 3 37.4
22:25 1012 29.88 841 24.83 5 41 87 3 37.4
22:30 1011 29.85 841 24.83 5 41 88 3.1 37.6
22:35 1012 29.88 841 24.83 4.9 40.9 88 3.1 37.6
22:40 1012 29.88 841 24.83 5 41 86 2.9 37.1
22:45 1011 29.85 841 24.83 5.2 41.4 85 3 37.4
22:50 1011 29.85 841 24.83 5.3 41.5 86 3.1 37.6
22:55 1011 29.85 841 24.83 5.2 41.3 87 3.1 37.6
23:00 1011 29.85 841 24.83 5.1 41.2 87 3.1 37.5
23:05 1011 29.85 841 24.83 5.1 41.2 86 3 37.3
23:10 1011 29.85 840 24.81 5 41 87 3 37.4
23:15 1011 29.85 840 24.81 4.9 40.8 88 3.1 37.6
23:20 1011 29.85 840 24.81 4.7 40.4 90 3.2 37.7
23:25 1011 29.85 840 24.81 4.5 40.1 91 3.1 37.6
23:30 1011 29.85 840 24.81 4.5 40.1 89 2.9 37.2
23:35 1010 29.83 840 24.81 4.7 40.4 87 2.8 37
23:40 1011 29.85 840 24.81 4.7 40.5 87 2.8 37.1
23:45 1010 29.83 840 24.81 4.6 40.2 89 2.9 37.3
23:50 1010 29.83 839 24.78 4.4 40 90 2.9 37.3
23:55 1010 29.83 839 24.78 4.3 39.8 91 3 37.4
24:00 1010 29.83 840 24.81 4.3 39.7 90 2.8 37.1